Map

Track Data

SID SEASON NUMBER BASIN SUBBASIN NAME ISO_TIME NATURE LAT LON WMO_WIND WMO_PRES WMO_AGENCY TRACK_TYPE DIST2LAND LANDFALL IFLAG USA_AGENCY USA_ATCF_ID USA_LAT USA_LON USA_RECORD USA_STATUS USA_WIND USA_PRES USA_SSHS USA_R34_NE USA_R34_SE USA_R34_SW USA_R34_NW USA_R50_NE USA_R50_SE USA_R50_SW USA_R50_NW USA_R64_NE USA_R64_SE USA_R64_SW USA_R64_NW USA_POCI USA_ROCI USA_RMW USA_EYE TOKYO_LAT TOKYO_LON TOKYO_GRADE TOKYO_WIND TOKYO_PRES TOKYO_R50_DIR TOKYO_R50_LONG TOKYO_R50_SHORT TOKYO_R30_DIR TOKYO_R30_LONG TOKYO_R30_SHORT TOKYO_LAND CMA_LAT CMA_LON CMA_CAT CMA_WIND CMA_PRES HKO_LAT HKO_LON HKO_CAT HKO_WIND HKO_PRES NEWDELHI_LAT NEWDELHI_LON NEWDELHI_GRADE NEWDELHI_WIND NEWDELHI_PRES NEWDELHI_CI NEWDELHI_DP NEWDELHI_POCI REUNION_LAT REUNION_LON REUNION_TYPE REUNION_WIND REUNION_PRES REUNION_TNUM REUNION_CI REUNION_RMW REUNION_R34_NE REUNION_R34_SE REUNION_R34_SW REUNION_R34_NW REUNION_R50_NE REUNION_R50_SE REUNION_R50_SW REUNION_R50_NW REUNION_R64_NE REUNION_R64_SE REUNION_R64_SW REUNION_R64_NW BOM_LAT BOM_LON BOM_TYPE BOM_WIND BOM_PRES BOM_TNUM BOM_CI BOM_RMW BOM_R34_NE BOM_R34_SE BOM_R34_SW BOM_R34_NW BOM_R50_NE BOM_R50_SE BOM_R50_SW BOM_R50_NW BOM_R64_NE BOM_R64_SE BOM_R64_SW BOM_R64_NW BOM_ROCI BOM_POCI BOM_EYE BOM_POS_METHOD BOM_PRES_METHOD NADI_LAT NADI_LON NADI_CAT NADI_WIND NADI_PRES WELLINGTON_LAT WELLINGTON_LON WELLINGTON_WIND WELLINGTON_PRES DS824_LAT DS824_LON DS824_STAGE DS824_WIND DS824_PRES TD9636_LAT TD9636_LON TD9636_STAGE TD9636_WIND TD9636_PRES TD9635_LAT TD9635_LON TD9635_WIND TD9635_PRES TD9635_ROCI NEUMANN_LAT NEUMANN_LON NEUMANN_CLASS NEUMANN_WIND NEUMANN_PRES MLC_LAT MLC_LON MLC_CLASS MLC_WIND MLC_PRES USA_GUST BOM_GUST BOM_GUST_PER REUNION_GUST REUNION_GUST_PER USA_SEAHGT USA_SEARAD_NE USA_SEARAD_SE USA_SEARAD_SW USA_SEARAD_NW STORM_SPEED STORM_DIR
1929294N13131 1929 70 WP MM NOT_NAMED 1929-10-21 10:00:00 NR 13.1000 130.700 main 573 556 __________O___ -1 13.1000 130.700 4 8 320
1929294N13131 1929 70 WP MM NOT_NAMED 1929-10-21 12:00:00 NR 13.2954 130.526 main 556 540 __________P___ -1 13.2954 130.526 4 8 319
1929294N13131 1929 70 WP MM NOT_NAMED 1929-10-21 15:00:00 NR 13.5839 130.268 main 543 519 __________P___ -1 13.5839 130.268 4 8 319
1929294N13131 1929 70 WP MM NOT_NAMED 1929-10-21 18:00:00 NR 13.8607 130.017 main 523 507 __________P___ -1 13.8607 130.017 4 7 318
1929294N13131 1929 70 WP MM NOT_NAMED 1929-10-21 21:00:00 NR 14.1191 129.777 main 512 507 __________P___ -1 14.1191 129.777 4 7 318
1929294N13131 1929 70 WP MM NOT_NAMED 1929-10-21 22:00:00 NR 14.2000 129.700 main 507 502 __________O___ -1 14.2000 129.700 4 6 317
1929294N13131 1929 70 WP MM NOT_NAMED 1929-10-22 00:00:00 NR 14.3534 129.552 main 507 491 __________P___ -1 14.3534 129.552 4 6 316
1929294N13131 1929 70 WP MM NOT_NAMED 1929-10-22 03:00:00 NR 14.5708 129.336 main 491 486 __________P___ -1 14.5708 129.336 4 6 316
1929294N13131 1929 70 WP MM NOT_NAMED 1929-10-22 06:00:00 NR 14.7869 129.118 main 486 483 __________P___ -1 14.7869 129.118 4 6 316
1929294N13131 1929 70 WP MM NOT_NAMED 1929-10-22 09:00:00 NR 15.0173 128.884 main 483 482 __________P___ -1 15.0173 128.884 4 7 316
1929294N13131 1929 70 WP MM NOT_NAMED 1929-10-22 10:00:00 NR 15.1000 128.800 main 482 474 __________O___ -1 15.1000 128.800 4 8 315
1929294N13131 1929 70 WP MM NOT_NAMED 1929-10-22 12:00:00 NR 15.2935 128.594 main 478 456 __________P___ -1 15.2935 128.594 4 9 314
1929294N13131 1929 70 WP MM NOT_NAMED 1929-10-22 15:00:00 NR 15.6030 128.265 main 460 437 __________P___ -1 15.6030 128.265 4 9 315
1929294N13131 1929 70 WP MM NOT_NAMED 1929-10-22 18:00:00 NR 15.9157 127.946 main 437 431 __________P___ -1 15.9157 127.946 4 8 317
1929294N13131 1929 70 WP MM NOT_NAMED 1929-10-22 21:00:00 NR 16.2098 127.674 main 438 429 __________P___ -1 16.2098 127.674 4 8 319
1929294N13131 1929 70 WP MM NOT_NAMED 1929-10-22 22:00:00 NR 16.3000 127.600 main 436 434 __________O___ -1 16.3000 127.600 4 6 324
1929294N13131 1929 70 WP MM NOT_NAMED 1929-10-23 00:00:00 NR 16.4481 127.493 main 434 434 __________P___ -1 16.4481 127.493 4 5 330
1929294N13131 1929 70 WP MM NOT_NAMED 1929-10-23 03:00:00 NR 16.6450 127.389 main 441 449 __________P___ -1 16.6450 127.389 4 4 338
1929294N13131 1929 70 WP MM NOT_NAMED 1929-10-23 06:00:00 NR 16.8311 127.335 main 449 449 __________P___ -1 16.8311 127.335 4 4 348
1929294N13131 1929 70 WP MM NOT_NAMED 1929-10-23 09:00:00 NR 17.0281 127.307 main 464 464 __________P___ -1 17.0281 127.307 4 4 352
1929294N13131 1929 70 WP MM NOT_NAMED 1929-10-23 10:00:00 NR 17.1000 127.300 main 473 473 __________O___ -1 17.1000 127.300 4 5 351
1929294N13131 1929 70 WP MM NOT_NAMED 1929-10-23 12:00:00 NR 17.2557 127.261 main 489 482 __________P___ -1 17.2557 127.261 4 5 349
1929294N13131 1929 70 WP MM NOT_NAMED 1929-10-23 15:00:00 NR 17.5080 127.216 main 499 499 __________P___ -1 17.5080 127.216 4 5 353
1929294N13131 1929 70 WP MM NOT_NAMED 1929-10-23 18:00:00 NR 17.7854 127.191 main 506 506 __________P___ -1 17.7854 127.191 4 6 0
1929294N13131 1929 70 WP MM NOT_NAMED 1929-10-23 21:00:00 NR 18.0912 127.193 main 513 513 __________P___ -1 18.0912 127.193 4 6 2
1929294N13131 1929 70 WP MM NOT_NAMED 1929-10-23 22:00:00 NR 18.2000 127.200 main 516 516 __________O___ -1 18.2000 127.200 4 7 7
1929294N13131 1929 70 WP MM NOT_NAMED 1929-10-24 00:00:00 NR 18.4245 127.224 main 517 517 __________P___ -1 18.4245 127.224 4 7 8
1929294N13131 1929 70 WP MM NOT_NAMED 1929-10-24 03:00:00 NR 18.7865 127.286 main 528 528 __________P___ -1 18.7865 127.286 4 8 10
1929294N13131 1929 70 WP MM NOT_NAMED 1929-10-24 06:00:00 NR 19.1704 127.370 main 544 544 __________P___ -1 19.1704 127.370 4 8 13
1929294N13131 1929 70 WP MM NOT_NAMED 1929-10-24 09:00:00 NR 19.5667 127.467 main 562 562 __________P___ -1 19.5667 127.467 4 8 13
1929294N13131 1929 70 WP MM NOT_NAMED 1929-10-24 10:00:00 NR 19.7000 127.500 main 565 565 __________O___ -1 19.7000 127.500 4 8 14
1929294N13131 1929 70 WP MM NOT_NAMED 1929-10-24 12:00:00 NR 19.9452 127.556 main 581 584 __________P___ -1 19.9452 127.556 4 8 13
1929294N13131 1929 70 WP MM NOT_NAMED 1929-10-24 15:00:00 NR 20.3190 127.646 main 595 605 __________P___ -1 20.3190 127.646 4 8 13
1929294N13131 1929 70 WP MM NOT_NAMED 1929-10-24 18:00:00 NR 20.7138 127.746 main 621 631 __________P___ -1 20.7138 127.746 4 9 13
1929294N13131 1929 70 WP MM NOT_NAMED 1929-10-24 21:00:00 NR 21.1453 127.859 main 659 664 __________P___ -1 21.1453 127.859 4 9 14
1929294N13131 1929 70 WP MM NOT_NAMED 1929-10-24 22:00:00 NR 21.3000 127.900 main 669 669 __________O___ -1 21.3000 127.900 4 10 14
1929294N13131 1929 70 WP MM NOT_NAMED 1929-10-25 00:00:00 NR 21.6114 127.979 main 694 687 __________P___ -1 21.6114 127.979 4 10 13
1929294N13131 1929 70 WP MM NOT_NAMED 1929-10-25 03:00:00 NR 22.1159 128.109 main 687 675 __________P___ -1 22.1159 128.109 4 11 14
1929294N13131 1929 70 WP MM NOT_NAMED 1929-10-25 06:00:00 NR 22.6708 128.259 main 682 672 __________P___ -1 22.6708 128.259 4 12 14
1929294N13131 1929 70 WP MM NOT_NAMED 1929-10-25 09:00:00 NR 23.2824 128.435 main 673 673 __________P___ -1 23.2824 128.435 4 13 15
1929294N13131 1929 70 WP MM NOT_NAMED 1929-10-25 10:00:00 NR 23.5000 128.500 main 679 676 __________O___ -1 23.5000 128.500 4 14 16
1929294N13131 1929 70 WP MM NOT_NAMED 1929-10-25 12:00:00 NR 23.9560 128.642 main 676 681 __________P___ -1 23.9560 128.642 4 15 16
1929294N13131 1929 70 WP MM NOT_NAMED 1929-10-25 15:00:00 NR 24.6836 128.878 main 696 644 __________P___ -1 24.6836 128.878 4 16 17
1929294N13131 1929 70 WP MM NOT_NAMED 1929-10-25 18:00:00 NR 25.4491 129.135 main 644 550 __________P___ -1 25.4491 129.135 4 16 17
1929294N13131 1929 70 WP MM NOT_NAMED 1929-10-25 21:00:00 NR 26.2359 129.407 main 550 515 __________P___ -1 26.2359 129.407 4 17 17
1929294N13131 1929 70 WP MM NOT_NAMED 1929-10-25 22:00:00 NR 26.5000 129.500 main 515 __________O___ -1 26.5000 129.500 4 17 18

Digital Typhoon Data and Search

About IBTrACS Database

This database is a web-friendly format of International Best Track Archive for Climate Stewardship (IBTrACS), a global best track data archive curated by NOAA dating back to 1842.

Updated: 2021-10-25